sensor_id;sensor_type;location;lat;lon;timestamp;temperature;humidity
28297;DHT22;62078;49.366;8.172;2022-11-02T00:00:48;18.10;73.30
28297;DHT22;62078;49.366;8.172;2022-11-02T00:03:15;18.10;73.20
28297;DHT22;62078;49.366;8.172;2022-11-02T00:05:40;18.20;73.30
28297;DHT22;62078;49.366;8.172;2022-11-02T00:08:06;18.10;73.20
28297;DHT22;62078;49.366;8.172;2022-11-02T00:10:31;18.10;73.20
28297;DHT22;62078;49.366;8.172;2022-11-02T00:12:57;18.10;73.30
28297;DHT22;62078;49.366;8.172;2022-11-02T00:15:26;18.10;73.30
28297;DHT22;62078;49.366;8.172;2022-11-02T00:17:54;18.10;73.20
28297;DHT22;62078;49.366;8.172;2022-11-02T00:20:21;18.10;73.30
28297;DHT22;62078;49.366;8.172;2022-11-02T00:22:49;18.10;73.40
28297;DHT22;62078;49.366;8.172;2022-11-02T00:25:17;18.10;73.40
28297;DHT22;62078;49.366;8.172;2022-11-02T00:27:44;18.10;73.40
28297;DHT22;62078;49.366;8.172;2022-11-02T00:30:10;18.00;73.30
28297;DHT22;62078;49.366;8.172;2022-11-02T00:32:36;18.10;73.20
28297;DHT22;62078;49.366;8.172;2022-11-02T00:35:02;18.00;73.30
28297;DHT22;62078;49.366;8.172;2022-11-02T00:37:27;18.00;73.30
28297;DHT22;62078;49.366;8.172;2022-11-02T00:39:53;18.00;73.20
28297;DHT22;62078;49.366;8.172;2022-11-02T00:42:19;18.00;73.30
28297;DHT22;62078;49.366;8.172;2022-11-02T00:44:44;18.00;73.30
28297;DHT22;62078;49.366;8.172;2022-11-02T00:47:10;18.00;73.30
28297;DHT22;62078;49.366;8.172;2022-11-02T00:49:36;18.00;73.40
28297;DHT22;62078;49.366;8.172;2022-11-02T00:52:02;18.00;73.30
28297;DHT22;62078;49.366;8.172;2022-11-02T00:54:28;18.00;73.30
28297;DHT22;62078;49.366;8.172;2022-11-02T00:56:56;18.00;73.40
28297;DHT22;62078;49.366;8.172;2022-11-02T00:59:21;18.00;73.30
28297;DHT22;62078;49.366;8.172;2022-11-02T01:01:48;18.00;73.40
28297;DHT22;62078;49.366;8.172;2022-11-02T01:04:15;18.00;73.40
28297;DHT22;62078;49.366;8.172;2022-11-02T01:06:42;18.00;73.40
28297;DHT22;62078;49.366;8.172;2022-11-02T01:09:09;18.00;73.40
28297;DHT22;62078;49.366;8.172;2022-11-02T01:11:35;18.00;73.40
28297;DHT22;62078;49.366;8.172;2022-11-02T01:14:01;18.00;73.30
28297;DHT22;62078;49.366;8.172;2022-11-02T01:16:26;18.00;73.30
28297;DHT22;62078;49.366;8.172;2022-11-02T01:18:55;18.00;73.40
28297;DHT22;62078;49.366;8.172;2022-11-02T01:21:22;18.00;73.30
28297;DHT22;62078;49.366;8.172;2022-11-02T01:23:48;18.00;73.30
28297;DHT22;62078;49.366;8.172;2022-11-02T01:26:14;18.00;73.30
28297;DHT22;62078;49.366;8.172;2022-11-02T01:28:40;18.00;73.30
28297;DHT22;62078;49.366;8.172;2022-11-02T01:31:07;17.90;73.20
28297;DHT22;62078;49.366;8.172;2022-11-02T01:33:33;18.00;73.30
28297;DHT22;62078;49.366;8.172;2022-11-02T01:36:02;18.00;73.20
28297;DHT22;62078;49.366;8.172;2022-11-02T01:38:27;18.00;73.20
28297;DHT22;62078;49.366;8.172;2022-11-02T01:40:53;18.00;73.20
28297;DHT22;62078;49.366;8.172;2022-11-02T01:45:45;18.00;73.10
28297;DHT22;62078;49.366;8.172;2022-11-02T01:48:11;18.00;73.20
28297;DHT22;62078;49.366;8.172;2022-11-02T01:50:37;18.00;73.20
28297;DHT22;62078;49.366;8.172;2022-11-02T01:53:03;18.00;73.20
28297;DHT22;62078;49.366;8.172;2022-11-02T01:55:31;17.90;73.20
28297;DHT22;62078;49.366;8.172;2022-11-02T01:58:00;18.00;73.20
28297;DHT22;62078;49.366;8.172;2022-11-02T02:00:27;17.90;73.20
28297;DHT22;62078;49.366;8.172;2022-11-02T02:03:13;17.90;73.10
28297;DHT22;62078;49.366;8.172;2022-11-02T02:05:47;17.90;73.20
28297;DHT22;62078;49.366;8.172;2022-11-02T02:08:16;17.90;73.20
28297;DHT22;62078;49.366;8.172;2022-11-02T02:10:43;17.90;73.20
28297;DHT22;62078;49.366;8.172;2022-11-02T02:13:09;17.90;73.20
28297;DHT22;62078;49.366;8.172;2022-11-02T02:18:39;17.90;73.20
28297;DHT22;62078;49.366;8.172;2022-11-02T02:24:37;17.90;73.20
28297;DHT22;62078;49.366;8.172;2022-11-02T02:32:54;17.90;73.00
28297;DHT22;62078;49.366;8.172;2022-11-02T02:35:41;17.90;73.00
28297;DHT22;62078;49.366;8.172;2022-11-02T02:38:12;17.90;73.10
28297;DHT22;62078;49.366;8.172;2022-11-02T02:43:19;17.90;73.00
28297;DHT22;62078;49.366;8.172;2022-11-02T02:45:53;17.90;73.20
28297;DHT22;62078;49.366;8.172;2022-11-02T02:48:23;17.90;73.10
28297;DHT22;62078;49.366;8.172;2022-11-02T02:50:53;17.90;73.10
28297;DHT22;62078;49.366;8.172;2022-11-02T02:53:24;17.90;73.10
28297;DHT22;62078;49.366;8.172;2022-11-02T02:55:53;17.90;73.10
28297;DHT22;62078;49.366;8.172;2022-11-02T02:58:25;17.90;73.10
28297;DHT22;62078;49.366;8.172;2022-11-02T03:00:53;17.90;73.20
28297;DHT22;62078;49.366;8.172;2022-11-02T03:03:23;17.80;73.10
28297;DHT22;62078;49.366;8.172;2022-11-02T03:06:03;17.90;73.20
28297;DHT22;62078;49.366;8.172;2022-11-02T03:08:30;17.80;73.00
28297;DHT22;62078;49.366;8.172;2022-11-02T03:11:16;17.80;73.00
28297;DHT22;62078;49.366;8.172;2022-11-02T03:19:25;17.80;73.00
28297;DHT22;62078;49.366;8.172;2022-11-02T03:22:10;17.90;73.10
28297;DHT22;62078;49.366;8.172;2022-11-02T03:25:07;17.80;73.00
28297;DHT22;62078;49.366;8.172;2022-11-02T03:27:38;17.90;73.10
28297;DHT22;62078;49.366;8.172;2022-11-02T03:30:21;17.90;73.00
28297;DHT22;62078;49.366;8.172;2022-11-02T03:38:15;17.90;73.00
28297;DHT22;62078;49.366;8.172;2022-11-02T03:40:44;17.90;73.00
28297;DHT22;62078;49.366;8.172;2022-11-02T03:43:12;17.80;73.00
28297;DHT22;62078;49.366;8.172;2022-11-02T03:45:43;17.90;73.10
28297;DHT22;62078;49.366;8.172;2022-11-02T03:48:12;17.80;73.00
28297;DHT22;62078;49.366;8.172;2022-11-02T03:50:48;17.90;73.00
28297;DHT22;62078;49.366;8.172;2022-11-02T03:53:52;17.80;73.00
28297;DHT22;62078;49.366;8.172;2022-11-02T03:57:02;17.80;72.90
28297;DHT22;62078;49.366;8.172;2022-11-02T03:59:21;17.80;72.90
28297;DHT22;62078;49.366;8.172;2022-11-02T04:01:49;17.80;73.00
28297;DHT22;62078;49.366;8.172;2022-11-02T04:04:16;17.80;72.90
28297;DHT22;62078;49.366;8.172;2022-11-02T04:06:42;17.80;73.00
28297;DHT22;62078;49.366;8.172;2022-11-02T04:09:09;17.80;73.00
28297;DHT22;62078;49.366;8.172;2022-11-02T04:11:35;17.80;73.00
28297;DHT22;62078;49.366;8.172;2022-11-02T04:14:19;17.80;73.00
28297;DHT22;62078;49.366;8.172;2022-11-02T04:17:08;17.80;73.00
28297;DHT22;62078;49.366;8.172;2022-11-02T04:19:54;17.70;72.90
28297;DHT22;62078;49.366;8.172;2022-11-02T04:22:21;17.80;73.00
28297;DHT22;62078;49.366;8.172;2022-11-02T04:25:09;17.80;73.00
28297;DHT22;62078;49.366;8.172;2022-11-02T04:27:41;17.80;73.00
28297;DHT22;62078;49.366;8.172;2022-11-02T04:30:07;17.80;73.00
28297;DHT22;62078;49.366;8.172;2022-11-02T04:32:40;17.80;73.00
28297;DHT22;62078;49.366;8.172;2022-11-02T04:35:25;17.70;73.10
28297;DHT22;62078;49.366;8.172;2022-11-02T04:37:51;17.80;73.10
28297;DHT22;62078;49.366;8.172;2022-11-02T04:40:35;17.80;73.10
28297;DHT22;62078;49.366;8.172;2022-11-02T04:43:02;17.80;73.10
28297;DHT22;62078;49.366;8.172;2022-11-02T04:45:28;17.80;73.10
28297;DHT22;62078;49.366;8.172;2022-11-02T04:47:59;17.80;73.00
28297;DHT22;62078;49.366;8.172;2022-11-02T04:50:25;17.80;73.10
28297;DHT22;62078;49.366;8.172;2022-11-02T04:52:55;17.80;73.10
28297;DHT22;62078;49.366;8.172;2022-11-02T04:55:21;17.70;73.00
28297;DHT22;62078;49.366;8.172;2022-11-02T04:57:47;17.70;73.00
28297;DHT22;62078;49.366;8.172;2022-11-02T05:00:13;17.80;73.00
28297;DHT22;62078;49.366;8.172;2022-11-02T05:02:39;17.70;72.90
28297;DHT22;62078;49.366;8.172;2022-11-02T05:05:05;17.80;72.90
28297;DHT22;62078;49.366;8.172;2022-11-02T05:07:31;17.70;73.00
28297;DHT22;62078;49.366;8.172;2022-11-02T05:09:57;17.80;73.00
28297;DHT22;62078;49.366;8.172;2022-11-02T05:12:22;17.80;73.10
28297;DHT22;62078;49.366;8.172;2022-11-02T05:14:48;17.80;73.10
28297;DHT22;62078;49.366;8.172;2022-11-02T05:17:14;17.80;73.00
28297;DHT22;62078;49.366;8.172;2022-11-02T05:19:40;17.70;73.00
28297;DHT22;62078;49.366;8.172;2022-11-02T05:22:06;17.70;73.00
28297;DHT22;62078;49.366;8.172;2022-11-02T05:24:32;17.80;73.00
28297;DHT22;62078;49.366;8.172;2022-11-02T05:26:58;17.80;73.00
28297;DHT22;62078;49.366;8.172;2022-11-02T05:29:26;17.80;73.00
28297;DHT22;62078;49.366;8.172;2022-11-02T05:31:52;17.70;73.00
28297;DHT22;62078;49.366;8.172;2022-11-02T05:34:18;17.70;72.90
28297;DHT22;62078;49.366;8.172;2022-11-02T05:36:43;17.70;73.00
28297;DHT22;62078;49.366;8.172;2022-11-02T05:39:12;17.70;73.00
28297;DHT22;62078;49.366;8.172;2022-11-02T05:41:37;17.70;73.00
28297;DHT22;62078;49.366;8.172;2022-11-02T05:44:03;17.80;73.00
28297;DHT22;62078;49.366;8.172;2022-11-02T05:46:29;17.80;73.00
28297;DHT22;62078;49.366;8.172;2022-11-02T05:48:54;17.70;72.90
28297;DHT22;62078;49.366;8.172;2022-11-02T05:51:20;17.80;73.00
28297;DHT22;62078;49.366;8.172;2022-11-02T05:53:46;17.80;73.00
28297;DHT22;62078;49.366;8.172;2022-11-02T05:56:12;17.80;73.00
28297;DHT22;62078;49.366;8.172;2022-11-02T05:58:39;17.80;73.30
28297;DHT22;62078;49.366;8.172;2022-11-02T06:01:06;17.80;73.30
28297;DHT22;62078;49.366;8.172;2022-11-02T06:03:32;17.80;73.30
28297;DHT22;62078;49.366;8.172;2022-11-02T06:06:00;17.80;73.20
28297;DHT22;62078;49.366;8.172;2022-11-02T06:08:26;17.80;73.30
28297;DHT22;62078;49.366;8.172;2022-11-02T06:10:53;17.80;73.30
28297;DHT22;62078;49.366;8.172;2022-11-02T06:13:19;17.80;73.30
28297;DHT22;62078;49.366;8.172;2022-11-02T06:15:45;17.80;73.30
28297;DHT22;62078;49.366;8.172;2022-11-02T06:18:10;17.70;73.20
28297;DHT22;62078;49.366;8.172;2022-11-02T06:20:36;17.80;73.30
28297;DHT22;62078;49.366;8.172;2022-11-02T06:23:02;17.80;73.30
28297;DHT22;62078;49.366;8.172;2022-11-02T06:25:28;17.70;73.20
28297;DHT22;62078;49.366;8.172;2022-11-02T06:27:55;17.70;73.30
28297;DHT22;62078;49.366;8.172;2022-11-02T06:30:24;17.80;73.40
28297;DHT22;62078;49.366;8.172;2022-11-02T06:32:51;17.80;73.40
28297;DHT22;62078;49.366;8.172;2022-11-02T06:35:19;17.80;73.00
28297;DHT22;62078;49.366;8.172;2022-11-02T06:37:45;17.80;72.80
28297;DHT22;62078;49.366;8.172;2022-11-02T06:40:12;17.80;73.20
28297;DHT22;62078;49.366;8.172;2022-11-02T06:42:39;17.80;73.30
28297;DHT22;62078;49.366;8.172;2022-11-02T06:45:05;17.80;73.30
28297;DHT22;62078;49.366;8.172;2022-11-02T06:47:33;17.70;73.40
28297;DHT22;62078;49.366;8.172;2022-11-02T06:49:59;17.80;73.60
28297;DHT22;62078;49.366;8.172;2022-11-02T06:52:27;17.80;73.40
28297;DHT22;62078;49.366;8.172;2022-11-02T06:54:53;17.80;73.40
28297;DHT22;62078;49.366;8.172;2022-11-02T06:57:20;17.80;73.50
28297;DHT22;62078;49.366;8.172;2022-11-02T06:59:46;17.70;73.30
28297;DHT22;62078;49.366;8.172;2022-11-02T07:02:11;17.80;73.30
28297;DHT22;62078;49.366;8.172;2022-11-02T07:04:37;17.80;73.30
28297;DHT22;62078;49.366;8.172;2022-11-02T07:07:03;17.80;73.30
28297;DHT22;62078;49.366;8.172;2022-11-02T07:09:28;17.70;73.30
28297;DHT22;62078;49.366;8.172;2022-11-02T07:11:54;17.80;73.30
28297;DHT22;62078;49.366;8.172;2022-11-02T07:14:20;17.70;73.40
28297;DHT22;62078;49.366;8.172;2022-11-02T07:16:46;17.80;72.50
28297;DHT22;62078;49.366;8.172;2022-11-02T07:19:11;17.80;72.80
28297;DHT22;62078;49.366;8.172;2022-11-02T07:21:37;17.80;73.30
28297;DHT22;62078;49.366;8.172;2022-11-02T07:24:03;17.80;73.40
28297;DHT22;62078;49.366;8.172;2022-11-02T07:26:28;17.70;73.40
28297;DHT22;62078;49.366;8.172;2022-11-02T07:28:55;17.80;73.40
28297;DHT22;62078;49.366;8.172;2022-11-02T07:31:20;17.80;73.40
28297;DHT22;62078;49.366;8.172;2022-11-02T07:33:46;17.50;61.70
28297;DHT22;62078;49.366;8.172;2022-11-02T07:36:12;17.50;71.60
28297;DHT22;62078;49.366;8.172;2022-11-02T07:38:37;17.50;73.20
28297;DHT22;62078;49.366;8.172;2022-11-02T07:41:03;17.70;73.30
28297;DHT22;62078;49.366;8.172;2022-11-02T07:43:29;17.70;73.30
28297;DHT22;62078;49.366;8.172;2022-11-02T07:45:55;17.80;73.10
28297;DHT22;62078;49.366;8.172;2022-11-02T07:48:20;17.80;73.10
28297;DHT22;62078;49.366;8.172;2022-11-02T07:50:46;17.90;73.00
28297;DHT22;62078;49.366;8.172;2022-11-02T07:53:12;17.90;72.80
28297;DHT22;62078;49.366;8.172;2022-11-02T07:55:38;17.90;72.80
28297;DHT22;62078;49.366;8.172;2022-11-02T07:58:07;17.90;72.70
28297;DHT22;62078;49.366;8.172;2022-11-02T08:00:36;18.10;72.30
28297;DHT22;62078;49.366;8.172;2022-11-02T08:03:03;18.10;71.80
28297;DHT22;62078;49.366;8.172;2022-11-02T08:05:31;18.20;71.90
28297;DHT22;62078;49.366;8.172;2022-11-02T08:08:05;18.10;71.80
28297;DHT22;62078;49.366;8.172;2022-11-02T08:10:32;18.20;71.90
28297;DHT22;62078;49.366;8.172;2022-11-02T08:12:58;18.20;72.00
28297;DHT22;62078;49.366;8.172;2022-11-02T08:15:24;18.20;71.90
28297;DHT22;62078;49.366;8.172;2022-11-02T08:18:03;18.20;72.00
28297;DHT22;62078;49.366;8.172;2022-11-02T08:20:30;18.20;72.10
28297;DHT22;62078;49.366;8.172;2022-11-02T08:22:56;18.20;72.20
28297;DHT22;62078;49.366;8.172;2022-11-02T08:25:21;18.20;72.10
28297;DHT22;62078;49.366;8.172;2022-11-02T08:27:47;18.20;72.20
28297;DHT22;62078;49.366;8.172;2022-11-02T08:30:13;18.30;71.20
28297;DHT22;62078;49.366;8.172;2022-11-02T08:32:38;18.20;69.20
28297;DHT22;62078;49.366;8.172;2022-11-02T08:35:04;18.10;62.20
28297;DHT22;62078;49.366;8.172;2022-11-02T08:37:30;17.90;60.80
28297;DHT22;62078;49.366;8.172;2022-11-02T08:39:56;17.80;62.40
28297;DHT22;62078;49.366;8.172;2022-11-02T08:42:21;17.60;60.90
28297;DHT22;62078;49.366;8.172;2022-11-02T08:44:47;17.60;61.80
28297;DHT22;62078;49.366;8.172;2022-11-02T08:47:13;17.50;61.00
28297;DHT22;62078;49.366;8.172;2022-11-02T08:49:40;17.50;60.40
28297;DHT22;62078;49.366;8.172;2022-11-02T08:52:06;17.40;60.00
28297;DHT22;62078;49.366;8.172;2022-11-02T08:54:32;17.30;60.50
28297;DHT22;62078;49.366;8.172;2022-11-02T08:56:57;17.30;61.10
28297;DHT22;62078;49.366;8.172;2022-11-02T12:51:13;18.00;67.20
28297;DHT22;62078;49.366;8.172;2022-11-02T12:53:49;18.00;67.20
28297;DHT22;62078;49.366;8.172;2022-11-02T12:56:23;18.00;67.20
28297;DHT22;62078;49.366;8.172;2022-11-02T12:58:50;17.90;67.10
28297;DHT22;62078;49.366;8.172;2022-11-02T13:01:18;17.90;67.10
28297;DHT22;62078;49.366;8.172;2022-11-02T13:04:04;17.90;67.10
28297;DHT22;62078;49.366;8.172;2022-11-02T13:06:39;18.00;67.10
28297;DHT22;62078;49.366;8.172;2022-11-02T13:09:36;17.90;67.10
28297;DHT22;62078;49.366;8.172;2022-11-02T13:12:14;17.90;67.10
28297;DHT22;62078;49.366;8.172;2022-11-02T13:14:42;18.00;67.20
28297;DHT22;62078;49.366;8.172;2022-11-02T13:17:29;18.00;67.10
28297;DHT22;62078;49.366;8.172;2022-11-02T13:22:39;17.90;67.10
28297;DHT22;62078;49.366;8.172;2022-11-02T13:25:19;18.00;67.20
28297;DHT22;62078;49.366;8.172;2022-11-02T13:28:05;18.00;67.20
28297;DHT22;62078;49.366;8.172;2022-11-02T13:30:34;18.00;67.20
28297;DHT22;62078;49.366;8.172;2022-11-02T13:33:22;18.00;67.20
28297;DHT22;62078;49.366;8.172;2022-11-02T13:35:50;17.90;67.20
28297;DHT22;62078;49.366;8.172;2022-11-02T13:38:31;18.00;67.20
28297;DHT22;62078;49.366;8.172;2022-11-02T13:41:18;17.90;67.20
28297;DHT22;62078;49.366;8.172;2022-11-02T13:49:13;17.90;67.30
28297;DHT22;62078;49.366;8.172;2022-11-02T13:51:48;18.00;67.30
28297;DHT22;62078;49.366;8.172;2022-11-02T13:54:23;18.00;67.30
28297;DHT22;62078;49.366;8.172;2022-11-02T13:56:52;18.00;67.30
28297;DHT22;62078;49.366;8.172;2022-11-02T13:59:28;18.00;67.30
28297;DHT22;62078;49.366;8.172;2022-11-02T14:01:55;18.00;67.30
28297;DHT22;62078;49.366;8.172;2022-11-02T14:04:22;18.00;67.30
28297;DHT22;62078;49.366;8.172;2022-11-02T14:06:59;18.00;67.40
28297;DHT22;62078;49.366;8.172;2022-11-02T14:09:35;18.00;67.40
28297;DHT22;62078;49.366;8.172;2022-11-02T14:20:44;17.90;67.40
28297;DHT22;62078;49.366;8.172;2022-11-02T14:49:31;18.00;67.60
28297;DHT22;62078;49.366;8.172;2022-11-02T14:51:59;18.00;67.70
28297;DHT22;62078;49.366;8.172;2022-11-02T14:54:26;18.00;67.80
28297;DHT22;62078;49.366;8.172;2022-11-02T14:57:03;18.00;67.80
28297;DHT22;62078;49.366;8.172;2022-11-02T14:59:44;18.00;67.90
28297;DHT22;62078;49.366;8.172;2022-11-02T15:02:24;18.00;68.00
28297;DHT22;62078;49.366;8.172;2022-11-02T15:04:54;18.00;68.00
28297;DHT22;62078;49.366;8.172;2022-11-02T15:07:47;18.00;68.00
28297;DHT22;62078;49.366;8.172;2022-11-02T15:12:46;18.00;68.10
28297;DHT22;62078;49.366;8.172;2022-11-02T15:20:32;17.90;68.20
28297;DHT22;62078;49.366;8.172;2022-11-02T15:23:15;17.90;68.20
28297;DHT22;62078;49.366;8.172;2022-11-02T15:25:49;17.90;68.20
28297;DHT22;62078;49.366;8.172;2022-11-02T15:28:22;17.90;68.30
28297;DHT22;62078;49.366;8.172;2022-11-02T15:30:50;17.90;68.30
28297;DHT22;62078;49.366;8.172;2022-11-02T15:33:34;17.90;68.30
28297;DHT22;62078;49.366;8.172;2022-11-02T15:36:01;17.90;68.30
28297;DHT22;62078;49.366;8.172;2022-11-02T15:38:29;17.90;68.30
28297;DHT22;62078;49.366;8.172;2022-11-02T15:44:53;17.90;68.00
28297;DHT22;62078;49.366;8.172;2022-11-02T15:48:01;17.90;68.50
28297;DHT22;62078;49.366;8.172;2022-11-02T15:53:53;17.90;68.50
28297;DHT22;62078;49.366;8.172;2022-11-02T16:02:35;17.80;60.70
28297;DHT22;62078;49.366;8.172;2022-11-02T16:05:03;17.50;59.50
28297;DHT22;62078;49.366;8.172;2022-11-02T16:07:31;17.50;61.30
28297;DHT22;62078;49.366;8.172;2022-11-02T16:12:37;17.50;62.30
28297;DHT22;62078;49.366;8.172;2022-11-02T16:15:13;17.60;62.70
28297;DHT22;62078;49.366;8.172;2022-11-02T16:17:39;17.70;63.40
28297;DHT22;62078;49.366;8.172;2022-11-02T16:22:52;17.80;64.70
28297;DHT22;62078;49.366;8.172;2022-11-02T16:25:38;17.70;65.10
28297;DHT22;62078;49.366;8.172;2022-11-02T16:30:40;17.80;65.80
28297;DHT22;62078;49.366;8.172;2022-11-02T16:33:05;17.80;66.10
28297;DHT22;62078;49.366;8.172;2022-11-02T16:35:33;17.80;66.30
28297;DHT22;62078;49.366;8.172;2022-11-02T16:37:59;17.90;66.50
28297;DHT22;62078;49.366;8.172;2022-11-02T16:40:26;17.90;66.60
28297;DHT22;62078;49.366;8.172;2022-11-02T16:42:52;17.90;66.80
28297;DHT22;62078;49.366;8.172;2022-11-02T16:45:36;17.90;66.90
28297;DHT22;62078;49.366;8.172;2022-11-02T16:48:29;18.00;66.90
28297;DHT22;62078;49.366;8.172;2022-11-02T16:51:16;17.90;67.00
28297;DHT22;62078;49.366;8.172;2022-11-02T16:53:43;18.00;67.20
28297;DHT22;62078;49.366;8.172;2022-11-02T16:56:26;18.00;67.20
28297;DHT22;62078;49.366;8.172;2022-11-02T16:59:02;18.00;67.40
28297;DHT22;62078;49.366;8.172;2022-11-02T17:01:36;18.00;67.50
28297;DHT22;62078;49.366;8.172;2022-11-02T17:04:24;18.00;67.70
28297;DHT22;62078;49.366;8.172;2022-11-02T17:06:54;18.00;67.90
28297;DHT22;62078;49.366;8.172;2022-11-02T17:09:29;18.00;67.90
28297;DHT22;62078;49.366;8.172;2022-11-02T17:11:59;18.00;68.00
28297;DHT22;62078;49.366;8.172;2022-11-02T17:14:26;18.10;68.30
28297;DHT22;62078;49.366;8.172;2022-11-02T17:17:05;18.10;68.40
28297;DHT22;62078;49.366;8.172;2022-11-02T17:20:11;18.10;68.40
28297;DHT22;62078;49.366;8.172;2022-11-02T17:22:59;18.10;68.50
28297;DHT22;62078;49.366;8.172;2022-11-02T17:27:59;18.10;68.70
28297;DHT22;62078;49.366;8.172;2022-11-02T17:32:56;18.20;68.90
28297;DHT22;62078;49.366;8.172;2022-11-02T17:35:22;18.20;69.00
28297;DHT22;62078;49.366;8.172;2022-11-02T17:37:48;18.20;69.10
28297;DHT22;62078;49.366;8.172;2022-11-02T17:40:14;18.20;69.20
28297;DHT22;62078;49.366;8.172;2022-11-02T17:42:40;18.20;69.10
28297;DHT22;62078;49.366;8.172;2022-11-02T17:45:28;18.30;69.30
28297;DHT22;62078;49.366;8.172;2022-11-02T17:47:58;18.30;69.30
28297;DHT22;62078;49.366;8.172;2022-11-02T17:50:25;18.30;69.40
28297;DHT22;62078;49.366;8.172;2022-11-02T17:52:52;18.30;69.50
28297;DHT22;62078;49.366;8.172;2022-11-02T17:55:22;18.30;69.50
28297;DHT22;62078;49.366;8.172;2022-11-02T17:57:48;18.30;69.50
28297;DHT22;62078;49.366;8.172;2022-11-02T18:00:15;18.40;69.80
28297;DHT22;62078;49.366;8.172;2022-11-02T18:02:42;18.40;70.90
28297;DHT22;62078;49.366;8.172;2022-11-02T18:07:41;18.40;70.50
28297;DHT22;62078;49.366;8.172;2022-11-02T18:10:07;18.40;70.60
28297;DHT22;62078;49.366;8.172;2022-11-02T18:12:33;18.40;70.70
28297;DHT22;62078;49.366;8.172;2022-11-02T18:14:59;18.40;70.70
28297;DHT22;62078;49.366;8.172;2022-11-02T18:17:24;18.40;70.80
28297;DHT22;62078;49.366;8.172;2022-11-02T18:19:51;18.50;70.90
28297;DHT22;62078;49.366;8.172;2022-11-02T18:22:16;18.50;70.90
28297;DHT22;62078;49.366;8.172;2022-11-02T18:24:42;18.50;71.00
28297;DHT22;62078;49.366;8.172;2022-11-02T18:27:08;18.50;71.00
28297;DHT22;62078;49.366;8.172;2022-11-02T18:29:35;18.50;71.10
28297;DHT22;62078;49.366;8.172;2022-11-02T18:32:01;18.50;71.00
28297;DHT22;62078;49.366;8.172;2022-11-02T18:34:27;18.50;71.10
28297;DHT22;62078;49.366;8.172;2022-11-02T18:36:52;18.50;71.10
28297;DHT22;62078;49.366;8.172;2022-11-02T18:39:18;18.50;71.10
28297;DHT22;62078;49.366;8.172;2022-11-02T18:41:44;18.50;71.20
28297;DHT22;62078;49.366;8.172;2022-11-02T18:44:10;18.60;71.30
28297;DHT22;62078;49.366;8.172;2022-11-02T18:46:36;18.50;71.30
28297;DHT22;62078;49.366;8.172;2022-11-02T18:49:02;18.60;71.30
28297;DHT22;62078;49.366;8.172;2022-11-02T18:51:28;18.60;71.40
28297;DHT22;62078;49.366;8.172;2022-11-02T18:54:04;18.60;71.50
28297;DHT22;62078;49.366;8.172;2022-11-02T18:56:33;18.60;71.50
28297;DHT22;62078;49.366;8.172;2022-11-02T18:58:59;18.60;71.70
28297;DHT22;62078;49.366;8.172;2022-11-02T19:01:26;18.60;71.70
28297;DHT22;62078;49.366;8.172;2022-11-02T19:03:54;18.60;71.70
28297;DHT22;62078;49.366;8.172;2022-11-02T19:06:21;18.60;71.80
28297;DHT22;62078;49.366;8.172;2022-11-02T19:09:07;18.70;71.90
28297;DHT22;62078;49.366;8.172;2022-11-02T19:11:53;18.70;71.90
28297;DHT22;62078;49.366;8.172;2022-11-02T19:14:22;18.70;72.00
28297;DHT22;62078;49.366;8.172;2022-11-02T19:16:48;18.70;72.10
28297;DHT22;62078;49.366;8.172;2022-11-02T19:19:14;18.70;72.20
28297;DHT22;62078;49.366;8.172;2022-11-02T19:21:43;18.70;72.10
28297;DHT22;62078;49.366;8.172;2022-11-02T19:24:09;18.70;72.10
28297;DHT22;62078;49.366;8.172;2022-11-02T19:26:35;18.80;72.20
28297;DHT22;62078;49.366;8.172;2022-11-02T19:29:01;18.70;72.20
28297;DHT22;62078;49.366;8.172;2022-11-02T19:31:28;18.80;72.30
28297;DHT22;62078;49.366;8.172;2022-11-02T19:33:54;18.80;72.30
28297;DHT22;62078;49.366;8.172;2022-11-02T19:36:20;18.80;72.30
28297;DHT22;62078;49.366;8.172;2022-11-02T19:38:46;18.80;72.40
28297;DHT22;62078;49.366;8.172;2022-11-02T19:41:15;18.80;72.40
28297;DHT22;62078;49.366;8.172;2022-11-02T19:43:42;18.80;72.40
28297;DHT22;62078;49.366;8.172;2022-11-02T19:46:16;18.90;72.70
28297;DHT22;62078;49.366;8.172;2022-11-02T19:48:42;18.90;72.70
28297;DHT22;62078;49.366;8.172;2022-11-02T19:51:11;18.90;72.60
28297;DHT22;62078;49.366;8.172;2022-11-02T19:53:38;18.90;72.70
28297;DHT22;62078;49.366;8.172;2022-11-02T19:56:06;18.90;72.60
28297;DHT22;62078;49.366;8.172;2022-11-02T19:58:35;18.90;72.60
28297;DHT22;62078;49.366;8.172;2022-11-02T20:01:06;18.90;72.70
28297;DHT22;62078;49.366;8.172;2022-11-02T20:03:32;19.00;72.90
28297;DHT22;62078;49.366;8.172;2022-11-02T20:05:59;18.90;72.80
28297;DHT22;62078;49.366;8.172;2022-11-02T20:08:25;18.90;72.70
28297;DHT22;62078;49.366;8.172;2022-11-02T20:10:51;18.90;72.70
28297;DHT22;62078;49.366;8.172;2022-11-02T20:13:17;19.00;72.90
28297;DHT22;62078;49.366;8.172;2022-11-02T20:15:43;19.00;72.90
28297;DHT22;62078;49.366;8.172;2022-11-02T20:18:09;19.00;72.90
28297;DHT22;62078;49.366;8.172;2022-11-02T20:20:35;19.00;73.00
28297;DHT22;62078;49.366;8.172;2022-11-02T20:23:01;19.00;73.00
28297;DHT22;62078;49.366;8.172;2022-11-02T20:25:27;19.00;73.00
28297;DHT22;62078;49.366;8.172;2022-11-02T20:27:53;19.00;73.20
28297;DHT22;62078;49.366;8.172;2022-11-02T20:30:21;19.00;73.20
28297;DHT22;62078;49.366;8.172;2022-11-02T20:32:48;19.00;73.20
28297;DHT22;62078;49.366;8.172;2022-11-02T20:35:17;19.00;73.30
28297;DHT22;62078;49.366;8.172;2022-11-02T20:37:47;19.00;73.40
28297;DHT22;62078;49.366;8.172;2022-11-02T20:40:13;19.10;73.40
28297;DHT22;62078;49.366;8.172;2022-11-02T20:42:40;19.00;73.30
28297;DHT22;62078;49.366;8.172;2022-11-02T20:45:06;19.10;73.60
28297;DHT22;62078;49.366;8.172;2022-11-02T20:47:32;19.10;73.70
28297;DHT22;62078;49.366;8.172;2022-11-02T20:49:59;19.20;73.60
28297;DHT22;62078;49.366;8.172;2022-11-02T20:52:24;19.30;73.40
28297;DHT22;62078;49.366;8.172;2022-11-02T20:54:50;19.20;73.40
28297;DHT22;62078;49.366;8.172;2022-11-02T20:57:16;19.30;73.40
28297;DHT22;62078;49.366;8.172;2022-11-02T20:59:42;19.30;73.40
28297;DHT22;62078;49.366;8.172;2022-11-02T21:02:09;19.30;73.30
28297;DHT22;62078;49.366;8.172;2022-11-02T21:04:36;19.30;73.40
28297;DHT22;62078;49.366;8.172;2022-11-02T21:07:02;19.30;73.30
28297;DHT22;62078;49.366;8.172;2022-11-02T21:09:27;19.30;73.40
28297;DHT22;62078;49.366;8.172;2022-11-02T21:11:55;19.20;73.40
28297;DHT22;62078;49.366;8.172;2022-11-02T21:14:40;19.20;73.30
28297;DHT22;62078;49.366;8.172;2022-11-02T21:17:06;19.20;73.20
28297;DHT22;62078;49.366;8.172;2022-11-02T21:19:32;19.30;73.30
28297;DHT22;62078;49.366;8.172;2022-11-02T21:21:58;19.20;73.20
28297;DHT22;62078;49.366;8.172;2022-11-02T21:24:24;19.20;73.10